createdAt,value
2019-01-14T00:00:10.498Z,99.99
2019-01-14T00:01:10.371Z,99.99
2019-01-14T00:02:10.287Z,99.99
2019-01-14T00:03:10.251Z,99.99
2019-01-14T00:04:10.132Z,99.99
2019-01-14T00:05:10.040Z,99.99
2019-01-14T00:06:10.460Z,99.99
2019-01-14T00:07:09.898Z,99.99
2019-01-14T00:08:09.872Z,99.99
2019-01-14T00:09:09.723Z,99.99
2019-01-14T00:10:09.671Z,99.99
2019-01-14T00:11:09.556Z,99.99
2019-01-14T00:12:09.476Z,99.99
2019-01-14T00:13:09.434Z,99.99
2019-01-14T00:14:09.465Z,99.99
2019-01-14T00:15:09.235Z,99.99
2019-01-14T00:16:09.168Z,99.99
2019-01-14T00:17:09.066Z,99.99
2019-01-14T00:18:08.988Z,99.99
2019-01-14T00:19:08.915Z,99.99
2019-01-14T00:20:08.839Z,99.99
2019-01-14T00:21:08.740Z,99.99
2019-01-14T00:22:08.662Z,99.99
2019-01-14T00:23:08.581Z,99.99
2019-01-14T00:24:08.500Z,99.99
2019-01-14T00:25:08.460Z,99.99
2019-01-14T00:26:08.400Z,99.99
2019-01-14T00:27:08.301Z,99.99
2019-01-14T00:28:08.239Z,99.99
2019-01-14T00:29:08.144Z,99.99
2019-01-14T00:30:08.044Z,99.99
2019-01-14T00:31:07.983Z,99.99
2019-01-14T00:32:07.849Z,99.99
2019-01-14T00:33:07.769Z,99.99
2019-01-14T00:34:07.751Z,99.99
2019-01-14T00:35:07.686Z,99.99
2019-01-14T00:36:07.547Z,99.99
2019-01-14T00:37:07.445Z,99.99
2019-01-14T00:38:07.366Z,99.99
2019-01-14T00:39:07.334Z,99.99
2019-01-14T00:40:07.235Z,99.99
2019-01-14T00:41:07.188Z,99.99
2019-01-14T00:42:07.036Z,99.99
2019-01-14T00:43:07.007Z,99.99
2019-01-14T00:44:06.914Z,99.99
2019-01-14T00:45:06.835Z,99.99
2019-01-14T00:46:06.719Z,99.99
2019-01-14T00:47:06.680Z,99.99
2019-01-14T00:48:06.597Z,99.99
2019-01-14T00:49:06.520Z,99.99
2019-01-14T00:50:06.452Z,99.99
2019-01-14T00:51:06.308Z,99.99
2019-01-14T00:52:06.301Z,99.99
2019-01-14T00:53:06.144Z,99.99
2019-01-14T00:54:06.118Z,99.99
2019-01-14T00:55:05.993Z,99.99
2019-01-14T00:56:05.944Z,99.99
2019-01-14T00:57:05.888Z,99.99
2019-01-14T00:58:05.735Z,99.99
2019-01-14T00:59:05.663Z,99.99
2019-01-14T01:00:05.627Z,99.99
2019-01-14T01:01:05.504Z,99.99
2019-01-14T01:02:05.420Z,99.99
2019-01-14T01:03:05.331Z,99.99
2019-01-14T01:04:05.257Z,99.99
2019-01-14T01:05:05.176Z,99.99
2019-01-14T01:06:05.089Z,99.99
2019-01-14T01:07:05.044Z,99.99
2019-01-14T01:08:04.979Z,99.99
2019-01-14T01:09:04.849Z,99.99
2019-01-14T01:10:04.809Z,99.99
2019-01-14T01:11:04.693Z,99.99
2019-01-14T01:12:04.660Z,99.99
2019-01-14T01:13:04.580Z,99.99
2019-01-14T01:14:04.435Z,99.99
2019-01-14T01:15:04.414Z,99.99
2019-01-14T01:16:04.352Z,99.99
2019-01-14T01:17:04.193Z,99.99
2019-01-14T01:18:04.111Z,99.99
2019-01-14T01:19:04.057Z,99.99
2019-01-14T01:20:03.990Z,99.99
2019-01-14T01:21:03.869Z,99.99
2019-01-14T01:22:03.787Z,99.99
2019-01-14T01:23:03.712Z,99.99
2019-01-14T01:24:03.631Z,99.99
2019-01-14T01:25:03.586Z,99.99
2019-01-14T01:26:03.520Z,99.99
2019-01-14T01:27:03.377Z,99.99
2019-01-14T01:28:03.354Z,99.99
2019-01-14T01:29:03.232Z,99.99
2019-01-14T01:30:03.182Z,99.99
2019-01-14T01:31:03.121Z,99.99
2019-01-14T01:32:03.036Z,99.99
2019-01-14T01:33:02.897Z,99.99
2019-01-14T01:34:02.809Z,99.99
2019-01-14T01:35:02.737Z,99.99
2019-01-14T01:36:02.657Z,99.99
2019-01-14T01:37:02.569Z,99.99
2019-01-14T01:38:02.484Z,99.99
2019-01-14T01:39:02.401Z,99.99
2019-01-14T01:40:02.372Z,99.99
2019-01-14T01:41:02.364Z,99.99
2019-01-14T01:42:02.158Z,99.99
2019-01-14T01:43:02.086Z,99.99
2019-01-14T01:44:02.003Z,99.99
2019-01-14T01:45:01.917Z,99.99
2019-01-14T01:46:01.888Z,99.99
2019-01-14T01:47:01.756Z,99.99
2019-01-14T01:48:01.673Z,99.99
2019-01-14T01:49:01.626Z,99.99
2019-01-14T01:50:01.558Z,99.99
2019-01-14T01:51:01.466Z,99.99
2019-01-14T01:52:01.385Z,99.99
2019-01-14T01:53:01.277Z,99.99
2019-01-14T01:54:01.226Z,99.99
2019-01-14T01:55:01.154Z,99.99
2019-01-14T01:56:01.040Z,99.99
2019-01-14T01:57:00.987Z,99.99
2019-01-14T01:58:00.927Z,99.99
2019-01-14T01:59:00.815Z,99.99
2019-01-14T02:00:00.729Z,99.99
2019-01-14T02:01:00.757Z,99.99
2019-01-14T02:02:00.572Z,99.99
2019-01-14T02:03:00.509Z,99.99
2019-01-14T02:04:00.371Z,99.99
2019-01-14T02:05:00.297Z,99.99
2019-01-14T02:06:00.249Z,99.99
2019-01-14T02:07:00.129Z,99.99
2019-01-14T02:08:00.042Z,99.99
2019-01-14T02:09:00.051Z,99.99
2019-01-14T02:09:59.879Z,99.99
2019-01-14T02:10:59.806Z,99.99
2019-01-14T02:11:59.761Z,99.99
2019-01-14T02:12:59.639Z,99.99
2019-01-14T02:13:59.602Z,99.99
2019-01-14T02:14:59.473Z,99.99
2019-01-14T02:15:59.455Z,99.99
2019-01-14T02:16:59.312Z,99.99
2019-01-14T02:17:59.294Z,99.99
2019-01-14T02:18:59.203Z,99.99
2019-01-14T02:19:59.102Z,99.99
2019-01-14T02:20:58.993Z,99.99
2019-01-14T02:21:58.954Z,99.99
2019-01-14T02:22:58.875Z,99.99
2019-01-14T02:23:58.743Z,99.99
2019-01-14T02:24:58.708Z,99.99
2019-01-14T02:25:58.585Z,99.99
2019-01-14T02:26:58.543Z,99.99
2019-01-14T02:27:58.473Z,99.99
2019-01-14T02:28:58.383Z,99.99
2019-01-14T02:29:58.305Z,99.99
2019-01-14T02:30:58.180Z,99.99
2019-01-14T02:31:58.091Z,99.99
2019-01-14T02:32:58.020Z,99.99
2019-01-14T02:33:57.979Z,99.99
2019-01-14T02:34:57.881Z,99.99
2019-01-14T02:35:57.779Z,99.99
2019-01-14T02:36:57.689Z,99.99
2019-01-14T02:37:57.602Z,99.99
2019-01-14T02:38:57.519Z,99.99
2019-01-14T02:39:57.492Z,99.99
2019-01-14T02:40:57.401Z,99.99
2019-01-14T02:41:57.281Z,99.99
2019-01-14T02:42:57.197Z,99.99
2019-01-14T02:43:57.113Z,99.99
2019-01-14T02:44:57.087Z,99.91
2019-01-14T02:45:56.990Z,99.99
2019-01-14T02:46:56.867Z,99.99
2019-01-14T02:47:56.839Z,99.99
2019-01-14T02:48:56.707Z,99.99
2019-01-14T02:49:56.691Z,99.99
2019-01-14T02:50:56.602Z,99.99
2019-01-14T02:51:56.465Z,99.99
2019-01-14T02:52:56.382Z,99.99
2019-01-14T02:53:56.301Z,99.99
2019-01-14T02:54:56.222Z,99.99
2019-01-14T02:55:56.144Z,99.73
2019-01-14T02:56:56.055Z,99.63
2019-01-14T02:57:56.040Z,99.54
2019-01-14T02:58:55.938Z,99.82
2019-01-14T02:59:56.117Z,99.73
2019-01-14T03:00:55.773Z,99.44
2019-01-14T03:01:55.684Z,99.35
2019-01-14T03:02:55.629Z,99.11
2019-01-14T03:03:55.486Z,99.35
2019-01-14T03:04:55.465Z,98.68
2019-01-14T03:05:55.370Z,98.68
2019-01-14T03:06:57.899Z,98.54
2019-01-14T03:07:55.222Z,98.92
2019-01-14T03:08:55.111Z,99.06
2019-01-14T03:09:55.051Z,99.01
2019-01-14T03:10:54.968Z,99.16
2019-01-14T03:11:54.839Z,98.97
2019-01-14T03:12:54.800Z,98.97
2019-01-14T03:13:54.676Z,98.92
2019-01-14T03:14:54.588Z,99.20
2019-01-14T03:15:54.518Z,99.77
2019-01-14T03:16:54.426Z,99.77
2019-01-14T03:17:54.381Z,99.35
2019-01-14T03:18:54.337Z,99.77
2019-01-14T03:19:54.213Z,99.73
2019-01-14T03:20:54.129Z,99.26
2019-01-14T03:21:54.018Z,99.30
2019-01-14T03:22:53.933Z,99.26
2019-01-14T03:23:53.900Z,99.30
2019-01-14T03:24:53.809Z,99.11
2019-01-14T03:25:58.364Z,98.97
2019-01-14T03:26:53.611Z,99.99
2019-01-14T03:27:53.579Z,99.26
2019-01-14T03:28:53.478Z,99.35
2019-01-14T03:29:53.395Z,99.20
2019-01-14T03:30:53.338Z,98.21
2019-01-14T03:31:53.227Z,98.25
2019-01-14T03:32:53.172Z,99.06
2019-01-14T03:33:53.080Z,99.20
2019-01-14T03:34:52.971Z,99.06
2019-01-14T03:35:52.919Z,99.26
2019-01-14T03:36:52.832Z,99.39
2019-01-14T03:37:52.762Z,99.30
2019-01-14T03:38:52.640Z,99.30
2019-01-14T03:39:52.628Z,99.16
2019-01-14T03:40:52.478Z,99.01
2019-01-14T03:41:52.391Z,99.63
2019-01-14T03:42:52.303Z,99.26
2019-01-14T03:43:52.250Z,98.73
2019-01-14T03:44:52.139Z,98.59
2019-01-14T03:45:52.095Z,98.16
2019-01-14T03:46:51.977Z,98.25
2019-01-14T03:47:51.903Z,98.07
2019-01-14T03:48:51.855Z,98.63
2019-01-14T03:49:51.780Z,98.40
2019-01-14T03:50:51.650Z,98.63
2019-01-14T03:51:51.612Z,98.92
2019-01-14T03:52:51.507Z,99.26
2019-01-14T03:53:51.466Z,99.39
2019-01-14T03:54:51.374Z,99.16
2019-01-14T03:55:51.252Z,99.16
2019-01-14T03:56:51.162Z,99.01
2019-01-14T03:57:51.138Z,98.68
2019-01-14T03:58:51.006Z,99.44
2019-01-14T03:59:50.919Z,98.02
2019-01-14T04:00:50.873Z,98.59
2019-01-14T04:01:50.805Z,98.21
2019-01-14T04:02:50.671Z,98.21
2019-01-14T04:03:50.599Z,98.44
2019-01-14T04:04:50.578Z,98.25
2019-01-14T04:05:50.443Z,98.16
2019-01-14T04:06:50.407Z,98.25
2019-01-14T04:07:50.326Z,98.35
2019-01-14T04:08:50.256Z,98.30
2019-01-14T04:09:50.126Z,98.54
2019-01-14T04:10:50.102Z,98.68
2019-01-14T04:11:49.995Z,98.25
2019-01-14T04:12:49.928Z,98.54
2019-01-14T04:13:49.788Z,98.30
2019-01-14T04:14:49.697Z,98.44
2019-01-14T04:15:49.613Z,98.35
2019-01-14T04:16:49.566Z,98.35
2019-01-14T04:17:49.457Z,98.49
2019-01-14T04:18:49.437Z,97.55
2019-01-14T04:19:49.289Z,97.45
2019-01-14T04:20:49.219Z,97.31
2019-01-14T04:21:49.125Z,97.50
2019-01-14T04:22:49.105Z,97.31
2019-01-14T04:23:48.969Z,97.36
2019-01-14T04:24:48.881Z,98.11
2019-01-14T04:25:48.847Z,97.36
2019-01-14T04:26:48.771Z,97.36
2019-01-14T04:27:48.656Z,97.69
2019-01-14T04:28:48.794Z,98.30
2019-01-14T04:29:48.515Z,98.40
2019-01-14T04:30:48.428Z,98.68
2019-01-14T04:31:48.450Z,98.11
2019-01-14T04:32:48.236Z,98.40
2019-01-14T04:33:48.151Z,98.68
2019-01-14T04:34:48.073Z,98.68
2019-01-14T04:35:47.987Z,98.92
2019-01-14T04:36:47.948Z,99.26
2019-01-14T04:37:47.824Z,98.92
2019-01-14T04:38:47.792Z,99.30
2019-01-14T04:39:47.687Z,98.40
2019-01-14T04:40:47.612Z,98.82
2019-01-14T04:41:47.561Z,99.63
2019-01-14T04:42:47.417Z,99.44
2019-01-14T04:43:47.357Z,99.11
2019-01-14T04:44:47.251Z,99.58
2019-01-14T04:45:47.170Z,99.99
2019-01-14T04:46:47.132Z,99.99
2019-01-14T04:47:47.050Z,99.99
2019-01-14T04:48:46.932Z,99.99
2019-01-14T04:49:46.884Z,99.73
2019-01-14T04:50:46.762Z,99.99
2019-01-14T04:51:46.697Z,99.99
2019-01-14T04:52:46.640Z,99.99
2019-01-14T04:53:46.515Z,99.99
2019-01-14T04:54:46.433Z,99.99
2019-01-14T04:55:46.403Z,99.99
2019-01-14T04:56:46.310Z,99.99
2019-01-14T04:57:46.246Z,99.99
2019-01-14T04:58:46.157Z,99.99
2019-01-14T04:59:46.095Z,99.99
2019-01-14T05:00:45.951Z,99.99
2019-01-14T05:01:45.871Z,99.99
2019-01-14T05:02:45.785Z,99.99
2019-01-14T05:03:45.764Z,99.99
2019-01-14T05:04:45.619Z,99.99
2019-01-14T05:05:45.540Z,99.99
2019-01-14T05:06:45.516Z,99.99
2019-01-14T05:07:45.374Z,99.99
2019-01-14T05:08:45.355Z,99.99
2019-01-14T05:09:45.267Z,99.99
2019-01-14T05:10:45.196Z,99.99
2019-01-14T05:11:45.111Z,99.99
2019-01-14T05:12:45.009Z,99.99
2019-01-14T05:13:44.907Z,99.99
2019-01-14T05:14:44.850Z,99.99
2019-01-14T05:15:44.728Z,99.99
2019-01-14T05:16:44.704Z,99.99
2019-01-14T05:17:44.606Z,99.99
2019-01-14T05:18:44.501Z,99.99
2019-01-14T05:19:44.432Z,99.99
2019-01-14T05:20:44.317Z,99.99
2019-01-14T05:21:44.242Z,99.99
2019-01-14T05:22:44.158Z,99.99
2019-01-14T05:23:44.116Z,99.99
2019-01-14T05:24:43.990Z,99.99
2019-01-14T05:25:43.910Z,99.99
2019-01-14T05:26:43.860Z,99.99
2019-01-14T05:27:43.751Z,99.99
2019-01-14T05:28:43.699Z,99.99
2019-01-14T05:29:43.636Z,99.99
2019-01-14T05:30:43.503Z,99.99
2019-01-14T05:31:43.420Z,99.99
2019-01-14T05:32:43.404Z,99.99
2019-01-14T05:33:43.259Z,99.91
2019-01-14T05:34:43.231Z,99.87
2019-01-14T05:35:43.092Z,99.99
2019-01-14T05:36:43.011Z,99.87
2019-01-14T05:37:42.983Z,99.99
2019-01-14T05:38:42.877Z,99.99
2019-01-14T05:39:42.767Z,99.99
2019-01-14T05:40:42.685Z,99.99
2019-01-14T05:41:42.649Z,99.99
2019-01-14T05:42:42.528Z,99.99
2019-01-14T05:43:42.439Z,99.99
2019-01-14T05:44:42.410Z,99.99
2019-01-14T05:45:42.314Z,99.99
2019-01-14T05:46:42.258Z,99.99
2019-01-14T05:47:42.116Z,99.99
2019-01-14T05:48:42.039Z,99.99
2019-01-14T05:49:41.956Z,99.99
2019-01-14T05:50:41.927Z,99.99
2019-01-14T05:51:41.790Z,99.99
2019-01-14T05:52:41.751Z,99.99
2019-01-14T05:53:41.692Z,99.99
2019-01-14T05:54:41.552Z,99.99
2019-01-14T05:55:41.543Z,99.99
2019-01-14T05:56:41.428Z,99.99
2019-01-14T05:57:41.321Z,99.99
2019-01-14T05:58:41.269Z,99.99
2019-01-14T05:59:41.134Z,99.99
2019-01-14T06:00:41.105Z,99.99
2019-01-14T06:01:41.084Z,99.99
2019-01-14T06:02:40.887Z,99.99
2019-01-14T06:03:40.891Z,99.99
2019-01-14T06:04:40.764Z,99.99
2019-01-14T06:05:40.692Z,99.99
2019-01-14T06:06:40.630Z,99.99
2019-01-14T06:07:44.866Z,99.99
2019-01-14T06:08:40.404Z,99.99
2019-01-14T06:09:40.321Z,99.99
2019-01-14T06:10:40.294Z,99.99
2019-01-14T06:11:40.216Z,99.99
2019-01-14T06:12:40.076Z,99.99
2019-01-14T06:13:39.997Z,99.99
2019-01-14T06:14:39.946Z,99.99
2019-01-14T06:15:39.873Z,99.99
2019-01-14T06:16:39.785Z,99.99
2019-01-14T06:17:39.678Z,99.99
2019-01-14T06:18:39.586Z,99.99
2019-01-14T06:19:39.517Z,99.99
2019-01-14T06:20:39.419Z,99.99
2019-01-14T06:21:39.388Z,99.99
2019-01-14T06:22:39.271Z,99.99
2019-01-14T06:23:39.216Z,99.99
2019-01-14T06:24:39.099Z,99.99
2019-01-14T06:25:39.027Z,99.99
2019-01-14T06:26:38.990Z,99.99
2019-01-14T06:27:38.902Z,99.99
2019-01-14T06:28:38.812Z,99.99
2019-01-14T06:29:38.745Z,99.99
2019-01-14T06:30:38.605Z,99.99
2019-01-14T06:31:38.564Z,99.99
2019-01-14T06:32:38.444Z,99.99
2019-01-14T06:33:38.375Z,99.99
2019-01-14T06:34:38.326Z,99.99
2019-01-14T06:35:38.242Z,99.99
2019-01-14T06:36:38.167Z,99.99
2019-01-14T06:37:38.037Z,99.99
2019-01-14T06:38:37.953Z,99.58
2019-01-14T06:39:37.915Z,99.30
2019-01-14T06:40:37.845Z,99.20
2019-01-14T06:41:37.776Z,96.64
2019-01-14T06:42:37.621Z,95.79
2019-01-14T06:43:37.594Z,96.08
2019-01-14T06:44:37.472Z,96.83
2019-01-14T06:45:37.440Z,96.64
2019-01-14T06:46:37.294Z,96.78
2019-01-14T06:47:37.219Z,96.50
2019-01-14T06:48:37.192Z,96.88
2019-01-14T06:49:37.053Z,97.16
2019-01-14T06:50:36.973Z,96.97
2019-01-14T06:51:36.892Z,97.64
2019-01-14T06:52:36.818Z,98.39
2019-01-14T06:53:36.722Z,98.58
2019-01-14T06:54:36.669Z,98.87
2019-01-14T06:55:36.606Z,99.25
2019-01-14T06:56:36.483Z,99.63
2019-01-14T06:57:36.438Z,99.82
2019-01-14T06:58:36.333Z,99.91
2019-01-14T06:59:36.284Z,99.82
2019-01-14T07:00:36.201Z,99.99
2019-01-14T07:01:36.077Z,99.99
2019-01-14T07:02:36.022Z,99.99
2019-01-14T07:03:35.908Z,99.99
2019-01-14T07:04:35.826Z,99.99
2019-01-14T07:05:35.778Z,99.99
2019-01-14T07:06:35.721Z,99.99
2019-01-14T07:07:35.581Z,99.99
2019-01-14T07:08:35.499Z,99.99
2019-01-14T07:09:35.416Z,99.99
2019-01-14T07:10:35.389Z,99.99
2019-01-14T07:11:35.321Z,99.99
2019-01-14T07:12:35.263Z,99.99
2019-01-14T07:13:35.133Z,99.99
2019-01-14T07:14:35.003Z,99.99
2019-01-14T07:15:34.923Z,99.99
2019-01-14T07:16:34.848Z,99.99
2019-01-14T07:17:34.767Z,99.99
2019-01-14T07:18:34.716Z,99.99
2019-01-14T07:19:34.602Z,99.99
2019-01-14T07:20:34.514Z,99.99
2019-01-14T07:21:34.432Z,99.99
2019-01-14T07:22:34.349Z,99.99
2019-01-14T07:23:34.267Z,99.99
2019-01-14T07:24:34.182Z,99.99
2019-01-14T07:25:34.151Z,99.99
2019-01-14T07:26:34.055Z,99.99
2019-01-14T07:27:33.938Z,99.99
2019-01-14T07:28:33.917Z,99.99
2019-01-14T07:29:33.774Z,99.99
2019-01-14T07:30:33.723Z,99.99
2019-01-14T07:31:33.613Z,99.99
2019-01-14T07:32:33.531Z,99.99
2019-01-14T07:33:33.447Z,99.99
2019-01-14T07:34:33.414Z,99.99
2019-01-14T07:35:33.285Z,99.99
2019-01-14T07:36:33.258Z,99.99
2019-01-14T07:37:33.118Z,99.99
2019-01-14T07:38:33.074Z,99.99
2019-01-14T07:39:33.014Z,99.99
2019-01-14T07:40:32.935Z,99.99
2019-01-14T07:41:32.836Z,99.99
2019-01-14T07:42:32.707Z,99.99
2019-01-14T07:43:32.654Z,99.99
2019-01-14T07:44:32.607Z,99.99
2019-01-14T07:45:32.463Z,99.99
2019-01-14T07:46:32.430Z,99.99
2019-01-14T07:47:32.295Z,99.99
2019-01-14T07:48:32.218Z,99.99
2019-01-14T07:49:32.202Z,99.99
2019-01-14T07:50:32.102Z,99.99
2019-01-14T07:51:31.969Z,99.99
2019-01-14T07:52:31.895Z,99.99
2019-01-14T07:53:31.820Z,99.99
2019-01-14T07:54:31.722Z,99.99
2019-01-14T07:55:31.640Z,99.99
2019-01-14T07:56:31.597Z,99.99
2019-01-14T07:57:31.475Z,99.99
2019-01-14T07:58:31.404Z,99.99
2019-01-14T07:59:31.315Z,99.99
2019-01-14T08:00:31.232Z,99.99
2019-01-14T08:01:31.197Z,99.99
2019-01-14T08:02:31.120Z,99.99
2019-01-14T08:03:30.988Z,99.99
2019-01-14T08:04:30.941Z,99.99
2019-01-14T08:05:30.834Z,99.99
2019-01-14T08:06:30.741Z,99.99
2019-01-14T08:07:30.655Z,99.99
2019-01-14T08:08:30.576Z,99.99
2019-01-14T08:09:30.536Z,99.99
2019-01-14T08:10:30.408Z,99.99
2019-01-14T08:11:30.326Z,99.99
2019-01-14T08:12:30.250Z,99.99
2019-01-14T08:13:30.164Z,99.99
2019-01-14T08:14:30.087Z,99.99
2019-01-14T08:15:30.000Z,99.99
2019-01-14T08:16:29.923Z,99.99
2019-01-14T08:17:29.876Z,99.99
2019-01-14T08:18:29.756Z,99.99
2019-01-14T08:19:29.687Z,99.99
2019-01-14T08:20:29.656Z,99.99
2019-01-14T08:21:29.512Z,99.99
2019-01-14T08:22:29.425Z,99.99
2019-01-14T08:23:29.349Z,99.99
2019-01-14T08:24:29.271Z,99.99
2019-01-14T08:25:29.191Z,99.99
2019-01-14T08:26:29.190Z,99.99
2019-01-14T08:27:29.013Z,99.99
2019-01-14T08:28:28.942Z,99.99
2019-01-14T08:29:28.940Z,99.99
2019-01-14T08:30:28.776Z,99.99
2019-01-14T08:31:28.724Z,99.99
2019-01-14T08:32:28.652Z,99.99
2019-01-14T08:33:28.519Z,99.99
2019-01-14T08:34:28.481Z,99.99
2019-01-14T08:35:28.403Z,99.99
2019-01-14T08:36:28.312Z,99.99
2019-01-14T08:37:28.194Z,99.99
2019-01-14T08:38:28.168Z,99.99
2019-01-14T08:39:28.104Z,99.99
2019-01-14T08:40:27.950Z,99.99
2019-01-14T08:41:27.925Z,99.99
2019-01-14T08:42:27.785Z,99.99
2019-01-14T08:43:27.757Z,99.99
2019-01-14T08:44:27.664Z,99.99
2019-01-14T08:45:27.549Z,99.99
2019-01-14T08:46:27.464Z,99.99
2019-01-14T08:47:27.455Z,99.99
2019-01-14T08:48:28.679Z,99.99
2019-01-14T08:49:27.262Z,99.99
2019-01-14T08:50:27.134Z,99.99
2019-01-14T08:51:27.050Z,99.99
2019-01-14T08:52:26.976Z,99.99
2019-01-14T08:53:26.914Z,99.99
2019-01-14T08:54:26.831Z,99.99
2019-01-14T08:55:26.756Z,99.99
2019-01-14T08:56:26.650Z,99.99
2019-01-14T08:57:26.614Z,99.99
2019-01-14T08:58:26.477Z,99.99
2019-01-14T08:59:26.445Z,99.99
2019-01-14T09:00:26.310Z,99.99
2019-01-14T09:01:26.304Z,99.99
2019-01-14T09:02:26.144Z,99.99
2019-01-14T09:03:26.120Z,99.99
2019-01-14T09:04:32.215Z,99.99
2019-01-14T09:05:25.915Z,99.99
2019-01-14T09:06:25.818Z,99.99
2019-01-14T09:07:25.795Z,99.99
2019-01-14T09:08:28.743Z,99.99
2019-01-14T09:09:25.578Z,99.99
2019-01-14T09:10:25.498Z,99.99
2019-01-14T09:11:25.410Z,99.99
2019-01-14T09:12:25.332Z,99.99
2019-01-14T09:13:25.248Z,99.99
2019-01-14T09:14:25.209Z,99.99
2019-01-14T09:15:25.082Z,99.99
2019-01-14T09:16:25.100Z,99.99
2019-01-14T09:17:24.918Z,99.99
2019-01-14T09:18:24.926Z,99.99
2019-01-14T09:19:24.756Z,99.99
2019-01-14T09:20:24.671Z,99.99
2019-01-14T09:21:24.590Z,99.99
2019-01-14T09:22:24.516Z,99.99
2019-01-14T09:23:24.432Z,99.99
2019-01-14T09:24:24.390Z,99.99
2019-01-14T09:25:24.300Z,99.99
2019-01-14T09:26:24.236Z,99.99
2019-01-14T09:27:24.099Z,99.99
2019-01-14T09:28:24.076Z,99.99
2019-01-14T09:29:23.936Z,99.99
2019-01-14T09:30:23.901Z,99.99
2019-01-14T09:31:23.770Z,99.99
2019-01-14T09:32:23.739Z,99.99
2019-01-14T09:33:23.656Z,99.99
2019-01-14T09:34:23.577Z,99.99
2019-01-14T09:35:23.493Z,99.99
2019-01-14T09:36:23.362Z,99.99
2019-01-14T09:37:23.286Z,99.99
2019-01-14T09:38:23.263Z,99.99
2019-01-14T09:39:23.118Z,99.99
2019-01-14T09:40:23.036Z,99.99
2019-01-14T09:41:22.957Z,99.99
2019-01-14T09:42:22.878Z,99.99
2019-01-14T09:43:22.798Z,99.99
2019-01-14T09:44:22.716Z,99.99
2019-01-14T09:45:22.639Z,98.92
2019-01-14T09:46:22.602Z,98.54
2019-01-14T09:47:22.482Z,96.83
2019-01-14T09:48:22.433Z,95.98
2019-01-14T09:49:22.361Z,94.56
2019-01-14T09:50:22.223Z,95.31
2019-01-14T09:51:22.207Z,95.22
2019-01-14T09:52:22.080Z,95.89
2019-01-14T09:53:21.976Z,96.55
2019-01-14T09:54:21.922Z,96.45
2019-01-14T09:55:21.878Z,96.59
2019-01-14T09:56:21.732Z,97.07
2019-01-14T09:57:21.708Z,96.88
2019-01-14T09:58:21.616Z,97.07
2019-01-14T09:59:21.491Z,97.17
2019-01-14T10:00:21.473Z,97.17
2019-01-14T10:01:21.332Z,97.83
2019-01-14T10:02:21.295Z,98.21
2019-01-14T10:03:21.167Z,98.11
2019-01-14T10:04:21.083Z,98.21
2019-01-14T10:05:21.009Z,99.44
2019-01-14T10:06:20.969Z,99.06
2019-01-14T10:07:20.844Z,98.82
2019-01-14T10:08:20.755Z,99.99
2019-01-14T10:09:20.682Z,99.99
2019-01-14T10:10:20.627Z,99.99
2019-01-14T10:11:20.516Z,99.99
2019-01-14T10:12:20.478Z,99.99
2019-01-14T10:13:20.353Z,99.99
2019-01-14T10:14:20.331Z,99.99
2019-01-14T10:15:20.243Z,99.99
2019-01-14T10:16:20.109Z,99.99
2019-01-14T10:17:20.029Z,99.99
2019-01-14T10:18:19.945Z,99.99
2019-01-14T10:19:19.868Z,99.99
2019-01-14T10:20:19.783Z,99.99
2019-01-14T10:21:19.752Z,99.99
2019-01-14T10:22:19.676Z,99.99
2019-01-14T10:23:19.556Z,99.99
2019-01-14T10:24:19.499Z,99.99
2019-01-14T10:25:19.375Z,99.99
2019-01-14T10:26:19.344Z,99.99
2019-01-14T10:27:19.255Z,99.99
2019-01-14T10:28:19.141Z,99.99
2019-01-14T10:29:19.122Z,99.99
2019-01-14T10:30:18.970Z,99.99
2019-01-14T10:31:20.061Z,99.99
2019-01-14T10:32:18.810Z,99.99
2019-01-14T10:33:18.783Z,99.99
2019-01-14T10:34:18.702Z,99.99
2019-01-14T10:35:18.612Z,99.99
2019-01-14T10:36:18.482Z,99.99
2019-01-14T10:37:22.762Z,99.99
2019-01-14T10:38:18.360Z,99.99
2019-01-14T10:39:18.286Z,99.99
2019-01-14T10:40:18.169Z,99.99
2019-01-14T10:41:18.122Z,99.99
2019-01-14T10:42:17.989Z,99.99
2019-01-14T10:43:17.910Z,99.99
2019-01-14T10:44:17.870Z,99.99
2019-01-14T10:45:17.799Z,99.99
2019-01-14T10:46:17.664Z,99.99
2019-01-14T10:47:17.630Z,99.99
2019-01-14T10:48:17.505Z,99.99
2019-01-14T10:49:17.423Z,99.99
2019-01-14T10:50:17.383Z,99.99
2019-01-14T10:51:17.257Z,99.99
2019-01-14T10:52:17.210Z,99.99
2019-01-14T10:53:17.140Z,99.99
2019-01-14T10:54:17.231Z,99.99
2019-01-14T10:55:16.930Z,99.99
2019-01-14T10:56:16.860Z,99.99
2019-01-14T10:57:16.811Z,99.99
2019-01-14T10:58:16.690Z,99.99
2019-01-14T10:59:16.640Z,99.99
2019-01-14T11:00:16.592Z,99.99
2019-01-14T11:01:16.529Z,99.99
2019-01-14T11:02:16.366Z,99.99
2019-01-14T11:03:16.337Z,99.99
2019-01-14T11:04:16.249Z,99.99
2019-01-14T11:05:16.158Z,99.99
2019-01-14T11:06:16.079Z,99.99
2019-01-14T11:07:16.003Z,99.99
2019-01-14T11:08:15.870Z,99.99
2019-01-14T11:09:15.840Z,99.99
2019-01-14T11:10:15.711Z,98.07
2019-01-14T11:11:15.634Z,96.92
2019-01-14T11:12:15.541Z,98.16
2019-01-14T11:13:15.463Z,99.77
2019-01-14T11:14:15.406Z,99.99
2019-01-14T11:15:15.335Z,99.99
2019-01-14T11:16:15.222Z,99.99
2019-01-14T11:17:15.188Z,99.99
2019-01-14T11:18:15.099Z,99.99
2019-01-14T11:19:14.976Z,99.99
2019-01-14T11:20:14.895Z,99.99
2019-01-14T11:21:14.814Z,99.99
2019-01-14T11:22:14.734Z,99.99
2019-01-14T11:23:14.701Z,99.99
2019-01-14T11:24:14.569Z,99.99
2019-01-14T11:25:14.529Z,99.99
2019-01-14T11:26:14.454Z,99.99
2019-01-14T11:27:14.365Z,99.99
2019-01-14T11:28:14.243Z,99.99
2019-01-14T11:29:14.158Z,99.99
2019-01-14T11:30:14.184Z,99.99
2019-01-14T11:31:13.994Z,99.99
2019-01-14T11:32:13.912Z,99.99
2019-01-14T11:33:13.874Z,99.99
2019-01-14T11:34:13.821Z,99.99
2019-01-14T11:35:13.674Z,99.99
2019-01-14T11:36:13.587Z,99.99
2019-01-14T11:37:13.506Z,99.99
2019-01-14T11:38:13.421Z,99.99
2019-01-14T11:39:13.341Z,99.99
2019-01-14T11:40:13.307Z,99.99
2019-01-14T11:41:13.229Z,99.99
2019-01-14T11:42:13.140Z,99.99
2019-01-14T11:43:13.011Z,99.99
2019-01-14T11:44:12.928Z,99.99
2019-01-14T11:45:12.894Z,99.99
2019-01-14T11:46:12.793Z,99.99
2019-01-14T11:47:12.680Z,99.99
2019-01-14T11:48:12.606Z,99.99
2019-01-14T11:49:12.516Z,99.99
2019-01-14T11:50:12.491Z,99.99
2019-01-14T11:51:12.355Z,99.99
2019-01-14T11:52:12.331Z,99.99
2019-01-14T11:53:12.201Z,99.99
2019-01-14T11:54:12.159Z,99.99
2019-01-14T11:55:12.024Z,99.99
2019-01-14T11:56:11.945Z,99.99
2019-01-14T11:57:11.861Z,99.99
2019-01-14T11:58:11.813Z,99.99
2019-01-14T11:59:11.744Z,99.99
2019-01-14T12:00:11.664Z,99.99
2019-01-14T12:01:11.541Z,99.99
2019-01-14T12:02:11.467Z,99.99
2019-01-14T12:03:11.366Z,99.99
2019-01-14T12:04:11.350Z,99.99
2019-01-14T12:05:11.198Z,99.99
2019-01-14T12:06:11.165Z,99.99
2019-01-14T12:07:11.034Z,99.99
2019-01-14T12:08:10.997Z,99.99
2019-01-14T12:09:12.432Z,99.99
2019-01-14T12:10:10.804Z,99.99
2019-01-14T12:11:10.711Z,99.99
2019-01-14T12:12:10.674Z,99.99
2019-01-14T12:13:10.590Z,99.99
2019-01-14T12:14:10.464Z,99.99
2019-01-14T12:15:10.418Z,99.99
2019-01-14T12:16:10.303Z,99.99
2019-01-14T12:17:10.281Z,99.99
2019-01-14T12:18:10.128Z,99.99
2019-01-14T12:19:10.051Z,99.99
2019-01-14T12:20:09.963Z,99.99
2019-01-14T12:21:09.931Z,99.99
2019-01-14T12:22:09.841Z,99.99
2019-01-14T12:23:09.755Z,99.99
2019-01-14T12:24:09.638Z,99.99
2019-01-14T12:25:09.611Z,99.99
2019-01-14T12:26:09.513Z,99.99
2019-01-14T12:27:09.410Z,99.99
2019-01-14T12:28:09.311Z,99.99
2019-01-14T12:29:09.281Z,99.99
2019-01-14T12:30:09.147Z,99.99
2019-01-14T12:31:09.058Z,99.99
2019-01-14T12:32:09.032Z,99.99
2019-01-14T12:33:08.966Z,99.99
2019-01-14T12:34:08.814Z,99.99
2019-01-14T12:35:08.784Z,99.99
2019-01-14T12:36:08.697Z,99.99
2019-01-14T12:37:08.568Z,99.99
2019-01-14T12:38:08.540Z,99.99
2019-01-14T12:39:08.431Z,99.99
2019-01-14T12:40:08.345Z,99.99
2019-01-14T12:41:08.286Z,99.99
2019-01-14T12:42:08.250Z,99.99
2019-01-14T12:43:08.187Z,99.99
2019-01-14T12:44:08.041Z,99.99
2019-01-14T12:45:07.950Z,99.99
2019-01-14T12:46:07.879Z,99.99
2019-01-14T12:47:07.885Z,99.99
2019-01-14T12:48:07.663Z,99.99
2019-01-14T12:49:07.588Z,99.99
2019-01-14T12:50:07.558Z,99.99
2019-01-14T12:51:07.468Z,99.99